sensor_id;sensor_type;location;lat;lon;timestamp;temperature;humidity
23207;DHT22;11773;52.570;13.052;2023-04-23T00:00:22;16.60;99.90
23207;DHT22;11773;52.570;13.052;2023-04-23T00:02:53;16.60;99.90
23207;DHT22;11773;52.570;13.052;2023-04-23T00:05:27;16.60;99.90
23207;DHT22;11773;52.570;13.052;2023-04-23T00:07:58;16.70;99.90
23207;DHT22;11773;52.570;13.052;2023-04-23T00:10:29;16.70;99.90
23207;DHT22;11773;52.570;13.052;2023-04-23T00:12:59;16.70;99.90
23207;DHT22;11773;52.570;13.052;2023-04-23T00:15:29;16.80;99.90
23207;DHT22;11773;52.570;13.052;2023-04-23T00:17:59;16.70;99.90
23207;DHT22;11773;52.570;13.052;2023-04-23T00:20:28;16.70;99.90
23207;DHT22;11773;52.570;13.052;2023-04-23T00:22:58;16.70;99.90
23207;DHT22;11773;52.570;13.052;2023-04-23T00:25:28;16.70;99.90
23207;DHT22;11773;52.570;13.052;2023-04-23T00:27:57;16.70;99.90
23207;DHT22;11773;52.570;13.052;2023-04-23T00:30:27;16.70;99.90
23207;DHT22;11773;52.570;13.052;2023-04-23T00:32:57;16.70;99.90
23207;DHT22;11773;52.570;13.052;2023-04-23T00:35:26;16.60;99.90
23207;DHT22;11773;52.570;13.052;2023-04-23T00:37:56;16.60;99.90
23207;DHT22;11773;52.570;13.052;2023-04-23T00:40:25;16.60;99.90
23207;DHT22;11773;52.570;13.052;2023-04-23T00:42:55;16.60;99.90
23207;DHT22;11773;52.570;13.052;2023-04-23T00:45:25;16.60;99.90
23207;DHT22;11773;52.570;13.052;2023-04-23T00:47:55;16.60;99.90
23207;DHT22;11773;52.570;13.052;2023-04-23T00:50:25;16.60;99.90
23207;DHT22;11773;52.570;13.052;2023-04-23T00:52:55;16.60;99.90
23207;DHT22;11773;52.570;13.052;2023-04-23T00:55:25;16.60;99.90
23207;DHT22;11773;52.570;13.052;2023-04-23T00:57:54;16.50;99.90
23207;DHT22;11773;52.570;13.052;2023-04-23T01:00:24;16.60;99.90
23207;DHT22;11773;52.570;13.052;2023-04-23T01:02:54;16.60;99.90
23207;DHT22;11773;52.570;13.052;2023-04-23T01:05:25;16.50;99.90
23207;DHT22;11773;52.570;13.052;2023-04-23T01:07:55;16.50;99.90
23207;DHT22;11773;52.570;13.052;2023-04-23T01:10:24;16.60;99.90
23207;DHT22;11773;52.570;13.052;2023-04-23T01:12:54;16.50;99.90
23207;DHT22;11773;52.570;13.052;2023-04-23T01:15:23;16.50;99.90
23207;DHT22;11773;52.570;13.052;2023-04-23T01:17:53;16.60;99.90
23207;DHT22;11773;52.570;13.052;2023-04-23T01:20:23;16.40;99.90
23207;DHT22;11773;52.570;13.052;2023-04-23T01:22:53;16.40;99.90
23207;DHT22;11773;52.570;13.052;2023-04-23T01:25:23;16.50;99.90
23207;DHT22;11773;52.570;13.052;2023-04-23T01:27:52;16.40;99.90
23207;DHT22;11773;52.570;13.052;2023-04-23T01:30:25;16.30;99.90
23207;DHT22;11773;52.570;13.052;2023-04-23T01:32:55;16.30;99.90
23207;DHT22;11773;52.570;13.052;2023-04-23T01:35:25;16.30;99.90
23207;DHT22;11773;52.570;13.052;2023-04-23T01:37:56;16.20;99.90
23207;DHT22;11773;52.570;13.052;2023-04-23T01:40:28;16.30;99.90
23207;DHT22;11773;52.570;13.052;2023-04-23T01:42:58;16.20;99.90
23207;DHT22;11773;52.570;13.052;2023-04-23T01:45:30;16.10;99.90
23207;DHT22;11773;52.570;13.052;2023-04-23T01:48:00;16.30;99.90
23207;DHT22;11773;52.570;13.052;2023-04-23T01:50:29;16.30;99.90
23207;DHT22;11773;52.570;13.052;2023-04-23T01:52:59;16.30;99.90
23207;DHT22;11773;52.570;13.052;2023-04-23T01:55:29;16.20;99.90
23207;DHT22;11773;52.570;13.052;2023-04-23T01:57:59;16.30;99.90
23207;DHT22;11773;52.570;13.052;2023-04-23T02:00:28;16.30;99.90
23207;DHT22;11773;52.570;13.052;2023-04-23T02:02:58;16.40;99.90
23207;DHT22;11773;52.570;13.052;2023-04-23T02:05:29;16.40;99.90
23207;DHT22;11773;52.570;13.052;2023-04-23T02:08:00;16.40;99.90
23207;DHT22;11773;52.570;13.052;2023-04-23T02:10:30;16.40;99.90
23207;DHT22;11773;52.570;13.052;2023-04-23T02:13:01;16.40;99.90
23207;DHT22;11773;52.570;13.052;2023-04-23T02:15:32;16.40;99.90
23207;DHT22;11773;52.570;13.052;2023-04-23T02:18:02;16.40;99.90
23207;DHT22;11773;52.570;13.052;2023-04-23T02:20:32;16.40;99.90
23207;DHT22;11773;52.570;13.052;2023-04-23T02:23:03;16.40;99.90
23207;DHT22;11773;52.570;13.052;2023-04-23T02:25:33;16.40;99.90
23207;DHT22;11773;52.570;13.052;2023-04-23T02:28:05;16.40;99.90
23207;DHT22;11773;52.570;13.052;2023-04-23T02:30:35;16.40;99.90
23207;DHT22;11773;52.570;13.052;2023-04-23T02:33:06;16.40;99.90
23207;DHT22;11773;52.570;13.052;2023-04-23T02:35:36;16.40;99.90
23207;DHT22;11773;52.570;13.052;2023-04-23T02:38:05;16.40;99.90
23207;DHT22;11773;52.570;13.052;2023-04-23T02:40:35;16.40;99.90
23207;DHT22;11773;52.570;13.052;2023-04-23T02:43:04;16.40;99.90
23207;DHT22;11773;52.570;13.052;2023-04-23T02:45:34;16.40;99.90
23207;DHT22;11773;52.570;13.052;2023-04-23T02:48:03;16.40;99.90
23207;DHT22;11773;52.570;13.052;2023-04-23T02:50:33;16.40;99.90
23207;DHT22;11773;52.570;13.052;2023-04-23T02:53:02;16.40;99.90
23207;DHT22;11773;52.570;13.052;2023-04-23T02:55:35;16.40;99.90
23207;DHT22;11773;52.570;13.052;2023-04-23T02:58:05;16.40;99.90
23207;DHT22;11773;52.570;13.052;2023-04-23T03:00:34;16.40;99.90
23207;DHT22;11773;52.570;13.052;2023-04-23T03:03:04;16.40;99.90
23207;DHT22;11773;52.570;13.052;2023-04-23T03:05:33;16.40;99.90
23207;DHT22;11773;52.570;13.052;2023-04-23T03:08:03;16.40;99.90
23207;DHT22;11773;52.570;13.052;2023-04-23T03:10:32;16.30;99.90
23207;DHT22;11773;52.570;13.052;2023-04-23T03:13:02;16.30;99.90
23207;DHT22;11773;52.570;13.052;2023-04-23T03:15:32;16.30;99.90
23207;DHT22;11773;52.570;13.052;2023-04-23T03:18:01;16.40;99.90
23207;DHT22;11773;52.570;13.052;2023-04-23T03:20:37;16.50;99.90
23207;DHT22;11773;52.570;13.052;2023-04-23T03:23:03;16.40;99.90
23207;DHT22;11773;52.570;13.052;2023-04-23T03:25:33;16.30;99.90
23207;DHT22;11773;52.570;13.052;2023-04-23T03:28:02;16.20;99.90
23207;DHT22;11773;52.570;13.052;2023-04-23T03:30:32;16.30;99.90
23207;DHT22;11773;52.570;13.052;2023-04-23T03:33:02;16.40;99.90
23207;DHT22;11773;52.570;13.052;2023-04-23T03:35:31;16.40;99.90
23207;DHT22;11773;52.570;13.052;2023-04-23T03:38:01;16.40;99.90
23207;DHT22;11773;52.570;13.052;2023-04-23T03:40:30;16.20;99.90
23207;DHT22;11773;52.570;13.052;2023-04-23T03:43:00;16.20;99.90
23207;DHT22;11773;52.570;13.052;2023-04-23T03:45:29;16.30;99.90
23207;DHT22;11773;52.570;13.052;2023-04-23T03:47:59;16.20;99.90
23207;DHT22;11773;52.570;13.052;2023-04-23T03:50:29;16.30;99.90
23207;DHT22;11773;52.570;13.052;2023-04-23T03:53:00;16.20;99.90
23207;DHT22;11773;52.570;13.052;2023-04-23T03:55:29;16.30;99.90
23207;DHT22;11773;52.570;13.052;2023-04-23T03:57:59;16.30;99.90
23207;DHT22;11773;52.570;13.052;2023-04-23T04:00:29;16.20;99.90
23207;DHT22;11773;52.570;13.052;2023-04-23T04:02:58;16.20;99.90
23207;DHT22;11773;52.570;13.052;2023-04-23T04:05:29;16.20;99.90
23207;DHT22;11773;52.570;13.052;2023-04-23T04:07:58;16.20;99.90
23207;DHT22;11773;52.570;13.052;2023-04-23T04:10:28;16.20;99.90
23207;DHT22;11773;52.570;13.052;2023-04-23T04:12:57;16.20;99.90
23207;DHT22;11773;52.570;13.052;2023-04-23T04:15:28;16.20;99.90
23207;DHT22;11773;52.570;13.052;2023-04-23T04:17:58;16.20;99.90
23207;DHT22;11773;52.570;13.052;2023-04-23T04:20:28;16.10;99.90
23207;DHT22;11773;52.570;13.052;2023-04-23T04:22:58;16.10;99.90
23207;DHT22;11773;52.570;13.052;2023-04-23T04:25:27;16.10;99.90
23207;DHT22;11773;52.570;13.052;2023-04-23T04:27:57;16.20;99.90
23207;DHT22;11773;52.570;13.052;2023-04-23T04:30:27;16.20;99.90
23207;DHT22;11773;52.570;13.052;2023-04-23T04:32:56;16.30;99.90
23207;DHT22;11773;52.570;13.052;2023-04-23T04:35:28;16.20;99.90
23207;DHT22;11773;52.570;13.052;2023-04-23T04:37:57;16.20;99.90
23207;DHT22;11773;52.570;13.052;2023-04-23T04:40:27;16.10;99.90
23207;DHT22;11773;52.570;13.052;2023-04-23T04:42:57;16.10;99.90
23207;DHT22;11773;52.570;13.052;2023-04-23T04:45:26;16.10;99.90
23207;DHT22;11773;52.570;13.052;2023-04-23T04:47:56;16.10;99.90
23207;DHT22;11773;52.570;13.052;2023-04-23T04:50:25;16.20;99.90
23207;DHT22;11773;52.570;13.052;2023-04-23T04:52:55;16.10;99.90
23207;DHT22;11773;52.570;13.052;2023-04-23T04:55:24;16.10;99.90
23207;DHT22;11773;52.570;13.052;2023-04-23T04:57:54;16.00;99.90
23207;DHT22;11773;52.570;13.052;2023-04-23T05:00:26;16.00;99.90
23207;DHT22;11773;52.570;13.052;2023-04-23T05:02:57;16.00;99.90
23207;DHT22;11773;52.570;13.052;2023-04-23T05:05:27;16.00;99.90
23207;DHT22;11773;52.570;13.052;2023-04-23T05:07:57;16.00;99.90
23207;DHT22;11773;52.570;13.052;2023-04-23T05:10:29;16.00;99.90
23207;DHT22;11773;52.570;13.052;2023-04-23T05:12:59;16.10;99.90
23207;DHT22;11773;52.570;13.052;2023-04-23T05:15:29;16.00;99.90
23207;DHT22;11773;52.570;13.052;2023-04-23T05:17:58;16.00;99.90
23207;DHT22;11773;52.570;13.052;2023-04-23T05:20:30;16.00;99.90
23207;DHT22;11773;52.570;13.052;2023-04-23T05:23:00;16.00;99.90
23207;DHT22;11773;52.570;13.052;2023-04-23T05:25:30;16.20;99.90
23207;DHT22;11773;52.570;13.052;2023-04-23T05:28:01;16.20;99.90
23207;DHT22;11773;52.570;13.052;2023-04-23T05:30:30;16.20;99.90
23207;DHT22;11773;52.570;13.052;2023-04-23T05:33:00;16.10;99.90
23207;DHT22;11773;52.570;13.052;2023-04-23T05:35:30;16.00;99.90
23207;DHT22;11773;52.570;13.052;2023-04-23T05:37:59;16.00;99.90
23207;DHT22;11773;52.570;13.052;2023-04-23T05:40:29;16.00;99.90
23207;DHT22;11773;52.570;13.052;2023-04-23T05:42:59;16.10;99.90
23207;DHT22;11773;52.570;13.052;2023-04-23T05:45:28;16.10;99.90
23207;DHT22;11773;52.570;13.052;2023-04-23T05:47:58;16.10;99.90
23207;DHT22;11773;52.570;13.052;2023-04-23T05:50:28;16.10;99.90
23207;DHT22;11773;52.570;13.052;2023-04-23T05:52:57;16.10;99.90
23207;DHT22;11773;52.570;13.052;2023-04-23T05:55:27;16.20;99.90
23207;DHT22;11773;52.570;13.052;2023-04-23T05:57:56;16.20;99.90
23207;DHT22;11773;52.570;13.052;2023-04-23T06:00:26;16.20;99.90
23207;DHT22;11773;52.570;13.052;2023-04-23T06:02:56;16.20;99.90
23207;DHT22;11773;52.570;13.052;2023-04-23T06:05:26;16.20;99.90
23207;DHT22;11773;52.570;13.052;2023-04-23T06:07:55;16.20;99.90
23207;DHT22;11773;52.570;13.052;2023-04-23T06:10:25;16.30;99.90
23207;DHT22;11773;52.570;13.052;2023-04-23T06:12:54;16.30;99.90
23207;DHT22;11773;52.570;13.052;2023-04-23T06:15:24;16.20;99.90
23207;DHT22;11773;52.570;13.052;2023-04-23T06:17:53;16.20;99.90
23207;DHT22;11773;52.570;13.052;2023-04-23T06:20:24;16.30;99.90
23207;DHT22;11773;52.570;13.052;2023-04-23T06:22:54;16.30;99.90
23207;DHT22;11773;52.570;13.052;2023-04-23T06:25:23;16.30;99.90
23207;DHT22;11773;52.570;13.052;2023-04-23T06:27:53;16.30;99.90
23207;DHT22;11773;52.570;13.052;2023-04-23T06:30:24;16.30;99.90
23207;DHT22;11773;52.570;13.052;2023-04-23T06:32:54;16.30;99.90
23207;DHT22;11773;52.570;13.052;2023-04-23T06:35:23;16.30;99.90
23207;DHT22;11773;52.570;13.052;2023-04-23T06:37:53;16.30;99.90
23207;DHT22;11773;52.570;13.052;2023-04-23T06:40:23;16.30;99.90
23207;DHT22;11773;52.570;13.052;2023-04-23T06:42:52;16.30;99.90
23207;DHT22;11773;52.570;13.052;2023-04-23T06:45:22;16.20;99.90
23207;DHT22;11773;52.570;13.052;2023-04-23T06:47:52;16.30;99.90
23207;DHT22;11773;52.570;13.052;2023-04-23T06:50:21;16.30;99.90
23207;DHT22;11773;52.570;13.052;2023-04-23T06:52:51;16.40;99.90
23207;DHT22;11773;52.570;13.052;2023-04-23T06:55:20;16.40;99.90
23207;DHT22;11773;52.570;13.052;2023-04-23T06:57:52;16.40;99.90
23207;DHT22;11773;52.570;13.052;2023-04-23T07:00:22;16.30;99.90
23207;DHT22;11773;52.570;13.052;2023-04-23T07:02:52;16.20;99.90
23207;DHT22;11773;52.570;13.052;2023-04-23T07:05:22;16.50;99.90
23207;DHT22;11773;52.570;13.052;2023-04-23T07:07:51;16.50;99.90
23207;DHT22;11773;52.570;13.052;2023-04-23T07:10:21;16.60;99.90
23207;DHT22;11773;52.570;13.052;2023-04-23T07:12:50;16.60;99.90
23207;DHT22;11773;52.570;13.052;2023-04-23T07:15:20;16.60;99.90
23207;DHT22;11773;52.570;13.052;2023-04-23T07:17:49;16.50;99.90
23207;DHT22;11773;52.570;13.052;2023-04-23T07:20:19;16.60;99.90
23207;DHT22;11773;52.570;13.052;2023-04-23T07:22:48;16.50;99.90
23207;DHT22;11773;52.570;13.052;2023-04-23T07:25:18;16.60;99.90
23207;DHT22;11773;52.570;13.052;2023-04-23T07:27:49;16.60;99.90
23207;DHT22;11773;52.570;13.052;2023-04-23T07:30:19;16.50;99.90
23207;DHT22;11773;52.570;13.052;2023-04-23T07:32:48;16.60;99.90
23207;DHT22;11773;52.570;13.052;2023-04-23T07:35:18;16.60;99.90
23207;DHT22;11773;52.570;13.052;2023-04-23T07:37:48;16.60;99.90
23207;DHT22;11773;52.570;13.052;2023-04-23T07:40:22;16.60;99.90
23207;DHT22;11773;52.570;13.052;2023-04-23T07:42:52;16.40;99.90
23207;DHT22;11773;52.570;13.052;2023-04-23T07:45:22;16.40;99.90
23207;DHT22;11773;52.570;13.052;2023-04-23T07:47:52;16.40;99.90
23207;DHT22;11773;52.570;13.052;2023-04-23T07:50:21;16.50;99.90
23207;DHT22;11773;52.570;13.052;2023-04-23T07:52:51;16.50;99.90
23207;DHT22;11773;52.570;13.052;2023-04-23T07:55:20;16.50;99.90
23207;DHT22;11773;52.570;13.052;2023-04-23T07:57:50;16.60;99.90
23207;DHT22;11773;52.570;13.052;2023-04-23T08:00:19;16.60;99.90
23207;DHT22;11773;52.570;13.052;2023-04-23T08:02:49;16.60;99.90
23207;DHT22;11773;52.570;13.052;2023-04-23T08:05:19;16.50;99.90
23207;DHT22;11773;52.570;13.052;2023-04-23T08:07:49;16.40;99.90
23207;DHT22;11773;52.570;13.052;2023-04-23T08:10:18;16.30;99.90
23207;DHT22;11773;52.570;13.052;2023-04-23T08:12:48;16.40;99.90
23207;DHT22;11773;52.570;13.052;2023-04-23T08:15:18;16.60;99.90
23207;DHT22;11773;52.570;13.052;2023-04-23T08:17:47;16.50;99.90
23207;DHT22;11773;52.570;13.052;2023-04-23T08:20:17;16.60;99.90
23207;DHT22;11773;52.570;13.052;2023-04-23T08:22:47;16.60;99.90
23207;DHT22;11773;52.570;13.052;2023-04-23T08:25:16;16.70;99.90
23207;DHT22;11773;52.570;13.052;2023-04-23T08:27:46;16.60;99.90
23207;DHT22;11773;52.570;13.052;2023-04-23T08:30:16;16.60;99.90
23207;DHT22;11773;52.570;13.052;2023-04-23T08:35:36;16.60;99.90
23207;DHT22;11773;52.570;13.052;2023-04-23T08:38:06;16.50;99.90
23207;DHT22;11773;52.570;13.052;2023-04-23T08:40:36;16.50;99.90
23207;DHT22;11773;52.570;13.052;2023-04-23T08:43:15;16.30;99.90
23207;DHT22;11773;52.570;13.052;2023-04-23T08:45:50;16.20;99.90
23207;DHT22;11773;52.570;13.052;2023-04-23T08:48:21;16.00;99.90
23207;DHT22;11773;52.570;13.052;2023-04-23T08:50:51;15.80;99.90
23207;DHT22;11773;52.570;13.052;2023-04-23T08:53:24;15.80;99.90
23207;DHT22;11773;52.570;13.052;2023-04-23T08:55:59;15.90;99.90
23207;DHT22;11773;52.570;13.052;2023-04-23T08:58:30;15.90;99.90
23207;DHT22;11773;52.570;13.052;2023-04-23T09:01:02;15.90;99.90
23207;DHT22;11773;52.570;13.052;2023-04-23T09:03:32;16.00;99.90
23207;DHT22;11773;52.570;13.052;2023-04-23T09:06:03;16.10;99.90
23207;DHT22;11773;52.570;13.052;2023-04-23T09:08:33;15.90;99.90
23207;DHT22;11773;52.570;13.052;2023-04-23T09:11:04;16.00;99.90
23207;DHT22;11773;52.570;13.052;2023-04-23T09:13:34;16.00;99.90
23207;DHT22;11773;52.570;13.052;2023-04-23T09:16:04;16.00;99.90
23207;DHT22;11773;52.570;13.052;2023-04-23T09:18:34;16.00;99.90
23207;DHT22;11773;52.570;13.052;2023-04-23T09:21:05;16.20;99.90
23207;DHT22;11773;52.570;13.052;2023-04-23T09:23:37;15.90;99.90
23207;DHT22;11773;52.570;13.052;2023-04-23T09:26:08;16.00;99.90
23207;DHT22;11773;52.570;13.052;2023-04-23T09:28:37;16.20;99.90
23207;DHT22;11773;52.570;13.052;2023-04-23T09:31:07;16.20;99.90
23207;DHT22;11773;52.570;13.052;2023-04-23T09:33:37;15.90;99.90
23207;DHT22;11773;52.570;13.052;2023-04-23T09:36:10;15.90;99.90
23207;DHT22;11773;52.570;13.052;2023-04-23T09:38:42;15.80;99.90
23207;DHT22;11773;52.570;13.052;2023-04-23T09:41:22;15.90;99.90
23207;DHT22;11773;52.570;13.052;2023-04-23T09:43:54;15.80;99.90
23207;DHT22;11773;52.570;13.052;2023-04-23T09:46:38;16.00;99.90
23207;DHT22;11773;52.570;13.052;2023-04-23T09:49:12;15.80;99.90
23207;DHT22;11773;52.570;13.052;2023-04-23T09:51:49;15.90;99.90
23207;DHT22;11773;52.570;13.052;2023-04-23T09:54:20;16.10;99.90
23207;DHT22;11773;52.570;13.052;2023-04-23T09:56:53;16.20;99.90
23207;DHT22;11773;52.570;13.052;2023-04-23T09:59:29;16.20;99.90
23207;DHT22;11773;52.570;13.052;2023-04-23T10:02:07;16.20;99.90
23207;DHT22;11773;52.570;13.052;2023-04-23T10:04:38;16.30;99.90
23207;DHT22;11773;52.570;13.052;2023-04-23T10:07:09;16.40;99.90
23207;DHT22;11773;52.570;13.052;2023-04-23T10:09:42;16.30;99.90
23207;DHT22;11773;52.570;13.052;2023-04-23T10:12:12;16.40;99.90
23207;DHT22;11773;52.570;13.052;2023-04-23T10:14:45;16.40;99.90
23207;DHT22;11773;52.570;13.052;2023-04-23T10:17:17;16.60;99.90
23207;DHT22;11773;52.570;13.052;2023-04-23T10:19:48;16.60;99.90
23207;DHT22;11773;52.570;13.052;2023-04-23T10:22:21;16.80;99.90
23207;DHT22;11773;52.570;13.052;2023-04-23T10:24:53;16.80;99.90
23207;DHT22;11773;52.570;13.052;2023-04-23T10:27:28;16.70;99.90
23207;DHT22;11773;52.570;13.052;2023-04-23T10:30:00;16.90;99.90
23207;DHT22;11773;52.570;13.052;2023-04-23T10:32:33;16.80;99.90
23207;DHT22;11773;52.570;13.052;2023-04-23T10:35:04;16.90;99.90
23207;DHT22;11773;52.570;13.052;2023-04-23T10:37:36;17.00;99.90
23207;DHT22;11773;52.570;13.052;2023-04-23T10:40:13;16.80;99.90
23207;DHT22;11773;52.570;13.052;2023-04-23T10:42:45;17.00;99.90
23207;DHT22;11773;52.570;13.052;2023-04-23T10:45:18;16.90;99.90
23207;DHT22;11773;52.570;13.052;2023-04-23T10:47:52;16.90;99.90
23207;DHT22;11773;52.570;13.052;2023-04-23T10:50:34;16.70;99.90
23207;DHT22;11773;52.570;13.052;2023-04-23T10:53:06;16.90;99.90
23207;DHT22;11773;52.570;13.052;2023-04-23T10:55:40;16.80;99.90
23207;DHT22;11773;52.570;13.052;2023-04-23T10:58:10;17.00;99.90
23207;DHT22;11773;52.570;13.052;2023-04-23T11:00:44;17.10;99.90
23207;DHT22;11773;52.570;13.052;2023-04-23T11:03:38;17.10;99.90
23207;DHT22;11773;52.570;13.052;2023-04-23T11:06:12;17.20;99.90
23207;DHT22;11773;52.570;13.052;2023-04-23T11:08:51;17.30;99.90
23207;DHT22;11773;52.570;13.052;2023-04-23T11:11:39;17.40;99.90
23207;DHT22;11773;52.570;13.052;2023-04-23T11:14:11;17.40;99.90
23207;DHT22;11773;52.570;13.052;2023-04-23T11:16:41;17.40;99.90
23207;DHT22;11773;52.570;13.052;2023-04-23T11:19:11;17.40;99.90
23207;DHT22;11773;52.570;13.052;2023-04-23T11:22:02;17.40;99.90
23207;DHT22;11773;52.570;13.052;2023-04-23T11:24:42;17.40;99.90
23207;DHT22;11773;52.570;13.052;2023-04-23T11:27:16;17.40;99.90
23207;DHT22;11773;52.570;13.052;2023-04-23T11:29:47;17.40;99.90
23207;DHT22;11773;52.570;13.052;2023-04-23T11:32:17;17.50;99.90
23207;DHT22;11773;52.570;13.052;2023-04-23T11:34:47;17.60;99.90
23207;DHT22;11773;52.570;13.052;2023-04-23T11:37:18;17.50;99.90
23207;DHT22;11773;52.570;13.052;2023-04-23T11:39:47;17.70;99.90
23207;DHT22;11773;52.570;13.052;2023-04-23T11:42:18;17.60;99.90
23207;DHT22;11773;52.570;13.052;2023-04-23T11:44:48;17.80;99.90
23207;DHT22;11773;52.570;13.052;2023-04-23T11:47:18;17.90;99.90
23207;DHT22;11773;52.570;13.052;2023-04-23T11:49:47;18.10;99.90
23207;DHT22;11773;52.570;13.052;2023-04-23T11:52:17;18.20;99.90
23207;DHT22;11773;52.570;13.052;2023-04-23T11:54:47;18.30;99.90
23207;DHT22;11773;52.570;13.052;2023-04-23T11:57:16;18.20;99.90
23207;DHT22;11773;52.570;13.052;2023-04-23T11:59:46;18.30;99.90
23207;DHT22;11773;52.570;13.052;2023-04-23T12:02:15;18.40;99.90
23207;DHT22;11773;52.570;13.052;2023-04-23T12:04:45;18.20;99.90
23207;DHT22;11773;52.570;13.052;2023-04-23T12:07:15;18.40;99.90
23207;DHT22;11773;52.570;13.052;2023-04-23T12:09:51;18.40;99.90
23207;DHT22;11773;52.570;13.052;2023-04-23T12:12:32;18.60;99.90
23207;DHT22;11773;52.570;13.052;2023-04-23T12:15:10;18.60;99.90
23207;DHT22;11773;52.570;13.052;2023-04-23T12:17:35;18.50;99.90
23207;DHT22;11773;52.570;13.052;2023-04-23T12:20:08;18.70;99.90
23207;DHT22;11773;52.570;13.052;2023-04-23T12:22:40;18.70;99.90
23207;DHT22;11773;52.570;13.052;2023-04-23T12:25:10;18.80;99.90
23207;DHT22;11773;52.570;13.052;2023-04-23T12:27:40;18.60;99.90
23207;DHT22;11773;52.570;13.052;2023-04-23T12:30:12;18.80;99.90
23207;DHT22;11773;52.570;13.052;2023-04-23T12:32:43;19.00;99.90
23207;DHT22;11773;52.570;13.052;2023-04-23T12:35:12;18.90;99.90
23207;DHT22;11773;52.570;13.052;2023-04-23T12:37:42;19.00;99.90
23207;DHT22;11773;52.570;13.052;2023-04-23T12:40:12;19.10;99.90
23207;DHT22;11773;52.570;13.052;2023-04-23T12:42:41;19.20;99.90
23207;DHT22;11773;52.570;13.052;2023-04-23T12:45:11;19.30;99.90
23207;DHT22;11773;52.570;13.052;2023-04-23T12:47:40;19.30;99.90
23207;DHT22;11773;52.570;13.052;2023-04-23T12:50:10;19.10;99.90
23207;DHT22;11773;52.570;13.052;2023-04-23T12:52:41;19.20;99.90
23207;DHT22;11773;52.570;13.052;2023-04-23T12:55:11;19.40;99.90
23207;DHT22;11773;52.570;13.052;2023-04-23T12:57:40;19.40;99.90
23207;DHT22;11773;52.570;13.052;2023-04-23T13:00:10;19.50;99.90
23207;DHT22;11773;52.570;13.052;2023-04-23T13:02:40;19.50;99.90
23207;DHT22;11773;52.570;13.052;2023-04-23T13:05:10;19.60;99.90
23207;DHT22;11773;52.570;13.052;2023-04-23T13:07:39;19.70;99.90
23207;DHT22;11773;52.570;13.052;2023-04-23T13:10:10;19.70;99.90
23207;DHT22;11773;52.570;13.052;2023-04-23T13:12:40;19.90;99.90
23207;DHT22;11773;52.570;13.052;2023-04-23T13:15:11;19.80;99.90
23207;DHT22;11773;52.570;13.052;2023-04-23T13:17:40;19.70;99.90
23207;DHT22;11773;52.570;13.052;2023-04-23T13:20:10;19.70;99.90
23207;DHT22;11773;52.570;13.052;2023-04-23T13:22:40;19.70;99.90
23207;DHT22;11773;52.570;13.052;2023-04-23T13:25:09;19.60;99.90
23207;DHT22;11773;52.570;13.052;2023-04-23T13:27:39;19.50;99.90
23207;DHT22;11773;52.570;13.052;2023-04-23T13:30:08;19.50;99.90
23207;DHT22;11773;52.570;13.052;2023-04-23T13:32:38;19.50;99.90
23207;DHT22;11773;52.570;13.052;2023-04-23T13:35:08;19.50;99.90
23207;DHT22;11773;52.570;13.052;2023-04-23T13:37:38;19.50;99.90
23207;DHT22;11773;52.570;13.052;2023-04-23T13:40:08;19.40;99.90
23207;DHT22;11773;52.570;13.052;2023-04-23T13:42:38;19.30;99.90
23207;DHT22;11773;52.570;13.052;2023-04-23T13:45:08;19.30;99.90
23207;DHT22;11773;52.570;13.052;2023-04-23T13:47:40;19.40;99.90
23207;DHT22;11773;52.570;13.052;2023-04-23T13:50:10;19.50;99.90
23207;DHT22;11773;52.570;13.052;2023-04-23T13:52:39;19.60;99.90
23207;DHT22;11773;52.570;13.052;2023-04-23T13:55:09;19.50;99.90
23207;DHT22;11773;52.570;13.052;2023-04-23T13:57:39;19.40;99.90
23207;DHT22;11773;52.570;13.052;2023-04-23T14:00:09;19.30;99.90
23207;DHT22;11773;52.570;13.052;2023-04-23T14:02:39;19.40;99.90
23207;DHT22;11773;52.570;13.052;2023-04-23T14:05:09;19.50;99.90
23207;DHT22;11773;52.570;13.052;2023-04-23T14:07:38;19.50;99.90
23207;DHT22;11773;52.570;13.052;2023-04-23T14:10:08;19.60;99.90
23207;DHT22;11773;52.570;13.052;2023-04-23T14:12:38;19.60;99.90
23207;DHT22;11773;52.570;13.052;2023-04-23T14:15:08;19.60;99.90
23207;DHT22;11773;52.570;13.052;2023-04-23T14:17:38;19.70;99.90
23207;DHT22;11773;52.570;13.052;2023-04-23T14:20:10;19.70;99.90
23207;DHT22;11773;52.570;13.052;2023-04-23T14:22:42;19.60;99.90
23207;DHT22;11773;52.570;13.052;2023-04-23T14:25:28;19.60;99.90
23207;DHT22;11773;52.570;13.052;2023-04-23T14:28:00;19.60;99.90
23207;DHT22;11773;52.570;13.052;2023-04-23T14:30:33;19.50;99.90
23207;DHT22;11773;52.570;13.052;2023-04-23T14:33:03;19.50;99.90
23207;DHT22;11773;52.570;13.052;2023-04-23T14:35:32;19.60;99.90
23207;DHT22;11773;52.570;13.052;2023-04-23T14:38:04;19.50;99.90
23207;DHT22;11773;52.570;13.052;2023-04-23T14:40:33;19.60;99.90
23207;DHT22;11773;52.570;13.052;2023-04-23T14:43:03;19.70;99.90
23207;DHT22;11773;52.570;13.052;2023-04-23T14:45:34;19.60;99.90
23207;DHT22;11773;52.570;13.052;2023-04-23T14:48:04;19.70;99.90
23207;DHT22;11773;52.570;13.052;2023-04-23T14:50:34;19.70;99.90
23207;DHT22;11773;52.570;13.052;2023-04-23T14:53:03;19.70;99.90
23207;DHT22;11773;52.570;13.052;2023-04-23T14:55:34;19.70;99.90
23207;DHT22;11773;52.570;13.052;2023-04-23T14:58:05;19.60;99.90
23207;DHT22;11773;52.570;13.052;2023-04-23T15:00:35;19.70;99.90
23207;DHT22;11773;52.570;13.052;2023-04-23T15:03:04;19.50;99.90
23207;DHT22;11773;52.570;13.052;2023-04-23T15:05:36;19.80;99.90
23207;DHT22;11773;52.570;13.052;2023-04-23T15:08:07;19.70;99.90
23207;DHT22;11773;52.570;13.052;2023-04-23T15:10:40;19.60;99.90
23207;DHT22;11773;52.570;13.052;2023-04-23T15:13:34;19.50;99.90
23207;DHT22;11773;52.570;13.052;2023-04-23T15:16:02;19.40;99.90
23207;DHT22;11773;52.570;13.052;2023-04-23T15:18:34;19.40;99.90
23207;DHT22;11773;52.570;13.052;2023-04-23T15:21:04;19.50;99.90
23207;DHT22;11773;52.570;13.052;2023-04-23T15:23:33;19.50;99.90
23207;DHT22;11773;52.570;13.052;2023-04-23T15:26:03;19.50;99.90
23207;DHT22;11773;52.570;13.052;2023-04-23T15:28:33;19.40;99.90
23207;DHT22;11773;52.570;13.052;2023-04-23T15:31:03;19.50;99.90
23207;DHT22;11773;52.570;13.052;2023-04-23T15:33:33;19.30;99.90
23207;DHT22;11773;52.570;13.052;2023-04-23T15:36:02;19.40;99.90
23207;DHT22;11773;52.570;13.052;2023-04-23T15:38:32;19.50;99.90